createdAt,value
2019-02-27T00:00:13.410Z,4.08
2019-02-27T00:01:16.701Z,4.10
2019-02-27T00:02:13.744Z,4.16
2019-02-27T00:03:13.917Z,4.10
2019-02-27T00:04:14.089Z,4.16
2019-02-27T00:05:14.261Z,4.17
2019-02-27T00:06:15.905Z,4.24
2019-02-27T00:07:14.607Z,4.23
2019-02-27T00:08:14.773Z,4.22
2019-02-27T00:09:14.948Z,4.17
2019-02-27T00:10:15.129Z,4.12
2019-02-27T00:11:15.293Z,4.05
2019-02-27T00:12:16.893Z,3.96
2019-02-27T00:13:15.637Z,3.91
2019-02-27T00:14:15.810Z,3.96
2019-02-27T00:15:15.982Z,4.01
2019-02-27T00:16:16.153Z,4.01
2019-02-27T00:17:18.085Z,4.04
2019-02-27T00:18:16.496Z,4.04
2019-02-27T00:19:16.663Z,3.95
2019-02-27T00:20:16.835Z,3.96
2019-02-27T00:21:17.006Z,3.96
2019-02-27T00:22:17.536Z,3.91
2019-02-27T00:23:17.355Z,3.77
2019-02-27T00:24:17.531Z,3.83
2019-02-27T00:25:17.703Z,3.76
2019-02-27T00:26:17.866Z,3.88
2019-02-27T00:27:18.030Z,3.94
2019-02-27T00:28:18.203Z,3.87
2019-02-27T00:29:18.374Z,3.95
2019-02-27T00:30:18.558Z,3.80
2019-02-27T00:31:18.724Z,3.87
2019-02-27T00:32:19.225Z,3.81
2019-02-27T00:33:19.067Z,3.78
2019-02-27T00:34:19.236Z,3.80
2019-02-27T00:35:19.406Z,3.74
2019-02-27T00:36:19.584Z,3.86
2019-02-27T00:37:19.760Z,3.74
2019-02-27T00:38:19.933Z,3.86
2019-02-27T00:39:20.101Z,3.78
2019-02-27T00:40:20.273Z,3.62
2019-02-27T00:41:20.442Z,3.59
2019-02-27T00:42:22.347Z,3.65
2019-02-27T00:43:20.801Z,3.66
2019-02-27T00:44:20.957Z,3.66
2019-02-27T00:45:21.129Z,3.77
2019-02-27T00:46:21.304Z,3.62
2019-02-27T00:47:21.476Z,3.68
2019-02-27T00:48:26.024Z,3.65
2019-02-27T00:49:21.819Z,3.74
2019-02-27T00:50:21.988Z,3.74
2019-02-27T00:51:22.161Z,3.87
2019-02-27T00:52:22.330Z,3.94
2019-02-27T00:53:24.433Z,3.91
2019-02-27T00:54:22.674Z,3.76
2019-02-27T00:55:22.854Z,3.76
2019-02-27T00:56:23.016Z,3.81
2019-02-27T00:57:23.194Z,3.73
2019-02-27T00:58:26.775Z,3.65
2019-02-27T00:59:23.531Z,3.63
2019-02-27T01:00:23.710Z,3.66
2019-02-27T01:01:23.875Z,3.65
2019-02-27T01:02:24.044Z,3.51
2019-02-27T01:03:26.245Z,3.48
2019-02-27T01:04:24.388Z,3.40
2019-02-27T01:05:24.752Z,3.42
2019-02-27T01:06:24.756Z,3.42
2019-02-27T01:08:27.654Z,3.28
2019-02-27T01:09:25.247Z,3.28
2019-02-27T01:10:25.412Z,3.41
2019-02-27T01:11:25.585Z,3.40
2019-02-27T01:12:25.916Z,3.31
2019-02-27T01:13:25.925Z,3.36
2019-02-27T01:14:26.097Z,3.32
2019-02-27T01:15:26.268Z,3.32
2019-02-27T01:16:26.441Z,3.32
2019-02-27T01:17:26.607Z,3.29
2019-02-27T01:18:30.543Z,3.29
2019-02-27T01:19:26.949Z,3.32
2019-02-27T01:20:27.119Z,3.22
2019-02-27T01:21:27.293Z,3.21
2019-02-27T01:22:27.460Z,3.16
2019-02-27T01:23:27.631Z,3.28
2019-02-27T01:24:27.801Z,3.29
2019-02-27T01:25:27.975Z,3.22
2019-02-27T01:26:30.802Z,3.21
2019-02-27T01:27:28.312Z,3.16
2019-02-27T01:28:28.486Z,3.18
2019-02-27T01:29:28.656Z,3.21
2019-02-27T01:30:28.826Z,3.23
2019-02-27T01:31:28.999Z,3.16
2019-02-27T01:32:31.161Z,3.19
2019-02-27T01:33:29.339Z,3.11
2019-02-27T01:34:29.504Z,3.08
2019-02-27T01:35:29.669Z,3.11
2019-02-27T01:36:29.841Z,3.08
2019-02-27T01:37:31.787Z,2.95
2019-02-27T01:38:30.183Z,2.98
2019-02-27T01:39:30.357Z,3.18
2019-02-27T01:40:30.539Z,3.07
2019-02-27T01:41:30.695Z,3.14
2019-02-27T01:42:32.784Z,3.16
2019-02-27T01:43:31.046Z,3.11
2019-02-27T01:44:31.258Z,3.01
2019-02-27T01:45:31.388Z,3.10
2019-02-27T01:46:31.564Z,3.04
2019-02-27T01:47:35.908Z,3.13
2019-02-27T01:48:31.901Z,2.92
2019-02-27T01:49:32.077Z,2.92
2019-02-27T01:50:32.245Z,2.92
2019-02-27T01:51:32.419Z,2.93
2019-02-27T01:52:34.107Z,3.03
2019-02-27T01:53:32.762Z,3.07
2019-02-27T01:54:32.933Z,3.10
2019-02-27T01:55:33.097Z,2.95
2019-02-27T01:56:33.271Z,2.97
2019-02-27T01:57:34.141Z,2.86
2019-02-27T01:59:33.794Z,2.87
2019-02-27T02:00:33.962Z,2.89
2019-02-27T02:01:34.130Z,2.93
2019-02-27T02:02:34.891Z,3.00
2019-02-27T02:03:34.479Z,2.93
2019-02-27T02:04:34.653Z,2.86
2019-02-27T02:05:34.821Z,2.64
2019-02-27T02:06:34.991Z,2.71
2019-02-27T02:07:35.164Z,2.82
2019-02-27T02:08:35.331Z,2.86
2019-02-27T02:09:35.520Z,2.87
2019-02-27T02:10:35.675Z,2.90
2019-02-27T02:11:35.845Z,2.90
2019-02-27T02:12:36.019Z,2.93
2019-02-27T02:13:36.191Z,3.01
2019-02-27T02:14:36.372Z,2.95
2019-02-27T02:15:36.563Z,2.92
2019-02-27T02:16:36.732Z,2.83
2019-02-27T02:17:38.167Z,2.79
2019-02-27T02:18:37.075Z,2.71
2019-02-27T02:19:37.243Z,2.61
2019-02-27T02:20:37.417Z,2.67
2019-02-27T02:21:37.587Z,2.53
2019-02-27T02:22:38.911Z,2.65
2019-02-27T02:23:37.932Z,2.71
2019-02-27T02:24:38.101Z,2.67
2019-02-27T02:25:38.269Z,2.67
2019-02-27T02:26:38.445Z,2.61
2019-02-27T02:27:39.113Z,2.57
2019-02-27T02:28:38.783Z,2.57
2019-02-27T02:29:38.953Z,2.51
2019-02-27T02:30:39.126Z,2.57
2019-02-27T02:31:41.605Z,2.53
2019-02-27T02:32:39.470Z,2.50
2019-02-27T02:33:39.641Z,2.51
2019-02-27T02:34:40.906Z,2.49
2019-02-27T02:35:39.984Z,2.56
2019-02-27T02:36:40.159Z,2.56
2019-02-27T02:37:40.330Z,2.46
2019-02-27T02:38:40.495Z,2.49
2019-02-27T02:39:40.663Z,2.56
2019-02-27T02:40:40.835Z,2.38
2019-02-27T02:41:46.789Z,2.44
2019-02-27T02:42:41.187Z,2.39
2019-02-27T02:43:42.018Z,2.38
2019-02-27T02:44:41.516Z,2.31
2019-02-27T02:45:41.698Z,2.18
2019-02-27T02:46:45.448Z,1.99
2019-02-27T02:47:42.037Z,2.10
2019-02-27T02:48:42.206Z,2.10
2019-02-27T02:49:43.640Z,2.10
2019-02-27T02:50:42.545Z,2.08
2019-02-27T02:51:42.715Z,2.06
2019-02-27T02:52:42.891Z,2.04
2019-02-27T02:53:43.053Z,2.04
2019-02-27T02:54:43.227Z,2.04
2019-02-27T02:55:47.500Z,2.10
2019-02-27T02:56:43.577Z,2.04
2019-02-27T02:57:43.736Z,1.94
2019-02-27T02:58:48.279Z,1.88
2019-02-27T02:59:44.075Z,1.77
2019-02-27T03:00:44.244Z,1.97
2019-02-27T03:01:45.669Z,1.97
2019-02-27T03:02:44.595Z,1.94
2019-02-27T03:03:44.763Z,2.11
2019-02-27T03:04:48.455Z,2.15
2019-02-27T03:05:45.096Z,2.18
2019-02-27T03:06:45.270Z,2.24
2019-02-27T03:07:45.694Z,2.29
2019-02-27T03:08:45.616Z,2.31
2019-02-27T03:09:45.776Z,2.29
2019-02-27T03:10:45.951Z,2.43
2019-02-27T03:11:46.123Z,2.43
2019-02-27T03:12:46.297Z,2.36
2019-02-27T03:13:46.476Z,2.38
2019-02-27T03:14:53.154Z,2.38
2019-02-27T03:15:46.824Z,2.38
2019-02-27T03:16:46.985Z,2.39
2019-02-27T03:17:47.150Z,2.46
2019-02-27T03:18:47.322Z,2.36
2019-02-27T03:19:47.490Z,2.50
2019-02-27T03:20:51.770Z,2.38
2019-02-27T03:21:47.832Z,2.50
2019-02-27T03:22:48.003Z,2.54
2019-02-27T03:23:52.214Z,2.50
2019-02-27T03:24:48.347Z,2.42
2019-02-27T03:25:48.521Z,2.42
2019-02-27T03:26:51.653Z,2.35
2019-02-27T03:27:48.865Z,2.56
2019-02-27T03:28:49.029Z,2.56
2019-02-27T03:29:53.500Z,2.51
2019-02-27T03:30:49.373Z,2.38
2019-02-27T03:31:57.760Z,2.53
2019-02-27T03:32:49.725Z,2.43
2019-02-27T03:33:49.889Z,2.28
2019-02-27T03:34:51.162Z,2.26
2019-02-27T03:35:50.226Z,2.11
2019-02-27T03:36:50.396Z,1.73
2019-02-27T03:37:50.564Z,1.66
2019-02-27T03:38:50.737Z,1.67
2019-02-27T03:39:50.909Z,1.60
2019-02-27T03:40:51.085Z,1.63
2019-02-27T03:41:58.461Z,1.56
2019-02-27T03:42:51.420Z,1.60
2019-02-27T03:43:51.589Z,1.62
2019-02-27T03:44:55.895Z,1.63
2019-02-27T03:45:51.924Z,1.67
2019-02-27T03:46:52.103Z,1.71
2019-02-27T03:47:52.960Z,1.68
2019-02-27T03:48:52.434Z,1.66
2019-02-27T03:49:52.600Z,1.76
2019-02-27T03:50:52.778Z,1.85
2019-02-27T03:51:52.943Z,1.80
2019-02-27T03:52:53.110Z,1.81
2019-02-27T03:53:53.280Z,1.74
2019-02-27T03:54:56.849Z,1.67
2019-02-27T03:55:53.622Z,1.56
2019-02-27T03:56:53.804Z,1.68
2019-02-27T03:57:55.321Z,1.74
2019-02-27T03:58:54.133Z,1.68
2019-02-27T03:59:54.311Z,1.67
2019-02-27T04:00:54.472Z,1.67
2019-02-27T04:01:54.645Z,1.70
2019-02-27T04:02:54.816Z,1.67
2019-02-27T04:03:55.444Z,1.70
2019-02-27T04:04:55.155Z,1.77
2019-02-27T04:05:55.331Z,1.80
2019-02-27T04:06:56.254Z,1.78
2019-02-27T04:07:55.676Z,1.71
2019-02-27T04:08:55.841Z,1.77
2019-02-27T04:09:56.442Z,1.73
2019-02-27T04:10:56.184Z,1.68
2019-02-27T04:11:56.349Z,1.63
2019-02-27T04:12:56.525Z,1.50
2019-02-27T04:14:03.290Z,1.42
2019-02-27T04:14:56.860Z,1.49
2019-02-27T04:15:57.030Z,1.48
2019-02-27T04:16:57.201Z,1.52
2019-02-27T04:17:57.377Z,1.45
2019-02-27T04:19:03.124Z,1.49
2019-02-27T04:19:57.710Z,1.67
2019-02-27T04:20:57.885Z,1.60
2019-02-27T04:22:01.282Z,1.66
2019-02-27T04:22:58.220Z,1.62
2019-02-27T04:23:58.404Z,1.78
2019-02-27T04:24:58.568Z,1.71
2019-02-27T04:25:58.725Z,1.63
2019-02-27T04:26:58.892Z,1.59
2019-02-27T04:27:59.067Z,1.67
2019-02-27T04:29:04.183Z,1.70
2019-02-27T04:29:59.430Z,1.68
2019-02-27T04:30:59.604Z,1.66
2019-02-27T04:31:59.757Z,1.68
2019-02-27T04:32:59.915Z,1.59
2019-02-27T04:34:01.135Z,1.62
2019-02-27T04:35:00.300Z,1.67
2019-02-27T04:36:00.429Z,1.67
2019-02-27T04:37:00.596Z,1.60
2019-02-27T04:38:00.769Z,1.70
2019-02-27T04:39:02.525Z,1.67
2019-02-27T04:40:01.106Z,1.58
2019-02-27T04:41:01.269Z,1.66
2019-02-27T04:42:01.452Z,1.68
2019-02-27T04:43:01.611Z,1.67
2019-02-27T04:44:05.279Z,1.66
2019-02-27T04:45:01.952Z,1.71
2019-02-27T04:46:02.123Z,1.73
2019-02-27T04:47:02.290Z,1.78
2019-02-27T04:48:02.457Z,1.77
2019-02-27T04:49:04.892Z,1.80
2019-02-27T04:50:02.797Z,1.81
2019-02-27T04:51:02.970Z,1.74
2019-02-27T04:52:03.139Z,1.49
2019-02-27T04:53:03.304Z,1.52
2019-02-27T04:54:06.327Z,1.53
2019-02-27T04:55:03.649Z,1.37
2019-02-27T04:56:03.826Z,1.42
2019-02-27T04:57:03.986Z,1.44
2019-02-27T04:58:04.148Z,1.48
2019-02-27T04:59:04.320Z,1.53
2019-02-27T05:00:04.486Z,1.41
2019-02-27T05:01:04.654Z,1.52
2019-02-27T05:02:04.826Z,1.55
2019-02-27T05:03:04.997Z,1.53
2019-02-27T05:04:05.166Z,1.50
2019-02-27T05:05:06.153Z,1.66
2019-02-27T05:06:05.512Z,1.62
2019-02-27T05:07:05.680Z,1.62
2019-02-27T05:08:05.854Z,1.62
2019-02-27T05:09:06.018Z,1.60
2019-02-27T05:10:07.290Z,1.59
2019-02-27T05:11:06.380Z,1.63
2019-02-27T05:12:06.531Z,1.67
2019-02-27T05:13:06.699Z,1.60
2019-02-27T05:14:06.860Z,1.52
2019-02-27T05:15:07.030Z,1.50
2019-02-27T05:16:07.209Z,1.49
2019-02-27T05:17:07.374Z,1.58
2019-02-27T05:18:07.544Z,1.63
2019-02-27T05:19:07.714Z,1.45
2019-02-27T05:20:11.633Z,1.56
2019-02-27T05:21:08.050Z,1.50
2019-02-27T05:22:08.223Z,1.52
2019-02-27T05:23:08.401Z,1.48
2019-02-27T05:24:08.690Z,1.38
2019-02-27T05:25:08.730Z,1.45
2019-02-27T05:26:08.899Z,1.44
2019-02-27T05:27:09.070Z,1.37
2019-02-27T05:28:09.239Z,1.42
2019-02-27T05:29:09.418Z,1.42
2019-02-27T05:30:12.023Z,1.52
2019-02-27T05:31:09.754Z,1.60
2019-02-27T05:32:09.928Z,1.60
2019-02-27T05:33:10.091Z,1.66
2019-02-27T05:34:13.610Z,1.60
2019-02-27T05:35:10.438Z,1.62
2019-02-27T05:36:10.608Z,1.62
2019-02-27T05:37:10.780Z,1.55
2019-02-27T05:38:10.942Z,1.44
2019-02-27T05:39:11.116Z,1.45
2019-02-27T05:40:11.286Z,1.58
2019-02-27T05:41:11.464Z,1.52
2019-02-27T05:42:13.152Z,1.60
2019-02-27T05:43:13.861Z,1.56
2019-02-27T05:44:11.963Z,1.49
2019-02-27T05:45:12.128Z,1.30
2019-02-27T05:46:12.304Z,1.31
2019-02-27T05:47:12.484Z,1.14
2019-02-27T05:48:12.653Z,1.13
2019-02-27T05:49:12.811Z,1.06
2019-02-27T05:50:12.981Z,1.12
2019-02-27T05:51:13.151Z,1.10
2019-02-27T05:52:14.386Z,0.92
2019-02-27T05:53:13.491Z,0.92
2019-02-27T05:54:13.661Z,0.86
2019-02-27T05:55:13.832Z,0.98
2019-02-27T05:56:16.296Z,0.92
2019-02-27T05:57:14.173Z,1.06
2019-02-27T05:58:14.342Z,0.88
2019-02-27T05:59:14.511Z,0.69
2019-02-27T06:00:14.680Z,0.73
2019-02-27T06:01:14.849Z,0.74
2019-02-27T06:02:15.033Z,0.78
2019-02-27T06:03:15.933Z,0.74
2019-02-27T06:04:15.365Z,0.80
2019-02-27T06:05:15.534Z,0.80
2019-02-27T06:06:15.710Z,0.80
2019-02-27T06:07:18.738Z,0.84
2019-02-27T06:08:16.026Z,0.68
2019-02-27T06:09:16.214Z,0.88
2019-02-27T06:10:19.829Z,0.92
2019-02-27T06:11:16.554Z,0.95
2019-02-27T06:12:16.722Z,1.01
2019-02-27T06:13:16.892Z,0.94
2019-02-27T06:14:21.131Z,0.91
2019-02-27T06:15:17.237Z,0.94
2019-02-27T06:16:17.398Z,0.91
2019-02-27T06:17:17.598Z,0.84
2019-02-27T06:18:22.565Z,0.92
2019-02-27T06:19:17.909Z,0.92
2019-02-27T06:20:18.079Z,0.95
2019-02-27T06:21:18.247Z,1.04
2019-02-27T06:22:18.417Z,0.96
2019-02-27T06:23:18.585Z,1.13
2019-02-27T06:24:18.758Z,1.12
2019-02-27T06:25:23.355Z,1.26
2019-02-27T06:26:19.096Z,1.23
2019-02-27T06:27:19.265Z,1.40
2019-02-27T06:28:19.487Z,1.12
2019-02-27T06:29:23.289Z,1.16
2019-02-27T06:30:19.783Z,1.16
2019-02-27T06:31:19.954Z,1.20
2019-02-27T06:32:20.114Z,1.23
2019-02-27T06:33:20.305Z,1.24
2019-02-27T06:34:22.384Z,1.24
2019-02-27T06:35:20.626Z,1.32
2019-02-27T06:36:20.797Z,1.22
2019-02-27T06:37:20.973Z,1.28
2019-02-27T06:38:25.221Z,1.10
2019-02-27T06:39:21.314Z,1.08
2019-02-27T06:40:21.490Z,0.86
2019-02-27T06:41:21.654Z,0.58
2019-02-27T06:42:21.884Z,0.70
2019-02-27T06:43:21.998Z,0.80
2019-02-27T06:44:22.167Z,0.84
2019-02-27T06:45:22.345Z,0.87
2019-02-27T06:46:22.495Z,1.10
2019-02-27T06:47:22.667Z,1.04
2019-02-27T06:48:22.836Z,1.10
2019-02-27T06:49:23.018Z,1.37
2019-02-27T06:50:25.529Z,1.73
2019-02-27T06:51:23.338Z,1.74
2019-02-27T06:53:23.725Z,2.56
2019-02-27T06:54:23.881Z,3.13
2019-02-27T06:55:25.510Z,3.42
2019-02-27T06:56:24.235Z,3.32
2019-02-27T06:57:24.609Z,3.84
2019-02-27T06:58:24.585Z,4.20
2019-02-27T06:59:25.652Z,4.37
2019-02-27T07:00:24.915Z,4.41
2019-02-27T07:01:25.094Z,4.73
2019-02-27T07:02:25.260Z,4.77
2019-02-27T07:03:29.277Z,3.96
2019-02-27T07:04:26.865Z,4.17
2019-02-27T07:05:25.789Z,4.44
2019-02-27T07:06:25.945Z,4.31
2019-02-27T07:07:26.129Z,4.66
2019-02-27T07:08:26.278Z,4.62
2019-02-27T07:09:26.438Z,4.70
2019-02-27T07:10:26.700Z,4.80
2019-02-27T07:11:26.778Z,4.86
2019-02-27T07:12:26.958Z,4.84
2019-02-27T07:13:29.923Z,4.78
2019-02-27T07:14:27.291Z,4.86
2019-02-27T07:15:27.498Z,5.14
2019-02-27T07:16:27.652Z,5.36
2019-02-27T07:17:29.185Z,5.61
2019-02-27T07:18:27.997Z,5.90
2019-02-27T07:19:28.155Z,6.01
2019-02-27T07:20:28.333Z,6.09
2019-02-27T07:21:32.424Z,6.20
2019-02-27T07:22:28.678Z,6.26
2019-02-27T07:23:28.854Z,6.22
2019-02-27T07:24:30.571Z,6.17
2019-02-27T07:25:29.212Z,6.07
2019-02-27T07:26:29.390Z,6.02
2019-02-27T07:27:31.266Z,6.02
2019-02-27T07:28:29.740Z,5.90
2019-02-27T07:29:29.939Z,6.11
2019-02-27T07:30:30.093Z,6.20
2019-02-27T07:31:30.264Z,6.48
2019-02-27T07:32:31.571Z,6.45
2019-02-27T07:33:30.616Z,6.14
2019-02-27T07:34:30.794Z,5.87
2019-02-27T07:35:30.968Z,5.57
2019-02-27T07:36:31.151Z,5.33
2019-02-27T07:37:31.320Z,5.17
2019-02-27T07:38:31.496Z,5.08
2019-02-27T07:39:32.862Z,4.99
2019-02-27T07:40:31.850Z,5.00
2019-02-27T07:41:32.019Z,4.93
2019-02-27T07:42:32.676Z,4.74
2019-02-27T07:43:32.371Z,4.78
2019-02-27T07:44:35.161Z,4.71
2019-02-27T07:45:32.718Z,4.48
2019-02-27T07:46:32.898Z,4.41
2019-02-27T07:47:33.074Z,4.10
2019-02-27T07:48:33.244Z,4.08
2019-02-27T07:49:33.424Z,4.17
2019-02-27T07:50:33.596Z,4.10
2019-02-27T07:51:33.786Z,3.98
2019-02-27T07:52:33.938Z,3.96
2019-02-27T07:53:34.110Z,3.87
2019-02-27T07:54:34.294Z,4.05
2019-02-27T07:55:34.463Z,4.13
2019-02-27T07:56:34.631Z,4.67
2019-02-27T07:57:35.119Z,5.54
2019-02-27T07:58:34.961Z,6.09
2019-02-27T07:59:37.898Z,6.70
2019-02-27T08:00:35.314Z,7.32
2019-02-27T08:01:43.535Z,7.70
2019-02-27T08:02:36.217Z,8.09
2019-02-27T08:03:35.832Z,8.55
2019-02-27T08:04:35.995Z,8.87
2019-02-27T08:05:36.200Z,9.19
2019-02-27T08:06:37.768Z,9.47
2019-02-27T08:07:36.548Z,9.23
2019-02-27T08:08:36.709Z,9.16
2019-02-27T08:09:36.886Z,9.54
2019-02-27T08:10:37.504Z,9.00
2019-02-27T08:11:37.234Z,9.58
2019-02-27T08:12:37.411Z,9.43
2019-02-27T08:13:37.588Z,9.55
2019-02-27T08:14:37.931Z,9.95
2019-02-27T08:15:37.944Z,10.19
2019-02-27T08:16:38.110Z,10.12
2019-02-27T08:17:38.790Z,9.95
2019-02-27T08:18:38.495Z,10.15
2019-02-27T08:19:38.635Z,9.40
2019-02-27T08:20:38.811Z,9.48
2019-02-27T08:21:38.984Z,9.89
2019-02-27T08:22:39.163Z,9.73
2019-02-27T08:23:39.341Z,10.05
2019-02-27T08:24:39.517Z,9.94
2019-02-27T08:25:39.695Z,9.39
2019-02-27T08:26:39.884Z,9.46
2019-02-27T08:27:42.818Z,9.86
2019-02-27T08:28:40.223Z,10.22
2019-02-27T08:29:40.406Z,10.17
2019-02-27T08:30:40.581Z,9.95
2019-02-27T08:31:40.779Z,9.65
2019-02-27T08:32:40.936Z,9.99
2019-02-27T08:33:41.103Z,10.31
2019-02-27T08:34:41.284Z,10.33
2019-02-27T08:35:41.464Z,10.63
2019-02-27T08:36:41.638Z,10.97
2019-02-27T08:37:41.823Z,10.79
2019-02-27T08:38:41.996Z,11.02
2019-02-27T08:39:42.182Z,11.23
2019-02-27T08:40:42.348Z,10.96
2019-02-27T08:41:42.526Z,11.26
2019-02-27T08:42:42.719Z,11.30
2019-02-27T08:43:42.880Z,11.29
2019-02-27T08:44:45.790Z,11.35
2019-02-27T08:45:43.239Z,10.44
2019-02-27T08:46:43.406Z,10.49
2019-02-27T08:47:44.306Z,10.04
2019-02-27T08:48:43.754Z,9.83
2019-02-27T08:49:43.934Z,10.35
2019-02-27T08:50:44.240Z,10.59
2019-02-27T08:51:44.316Z,10.75
2019-02-27T08:52:44.734Z,10.26
2019-02-27T08:53:44.671Z,9.74
2019-02-27T08:54:44.857Z,9.99
2019-02-27T08:55:45.033Z,9.92
2019-02-27T08:56:47.237Z,10.30
2019-02-27T08:57:45.390Z,10.25
2019-02-27T08:58:45.566Z,10.09
2019-02-27T08:59:45.753Z,9.72
2019-02-27T09:00:47.489Z,10.48
2019-02-27T09:01:46.108Z,10.92
2019-02-27T09:02:46.309Z,11.44
2019-02-27T09:03:46.464Z,12.00
2019-02-27T09:04:46.645Z,12.31
2019-02-27T09:05:46.825Z,12.00
2019-02-27T09:06:47.000Z,12.04
2019-02-27T09:07:47.209Z,11.47
2019-02-27T09:08:47.391Z,11.47
2019-02-27T09:09:51.182Z,11.66
2019-02-27T09:10:47.739Z,11.45
2019-02-27T09:11:47.922Z,11.72
2019-02-27T09:12:48.911Z,11.77
2019-02-27T09:13:48.277Z,11.60
2019-02-27T09:14:48.457Z,11.57
2019-02-27T09:15:48.638Z,11.87
2019-02-27T09:16:49.549Z,12.46
2019-02-27T09:17:49.549Z,13.08
2019-02-27T09:18:49.167Z,13.08
2019-02-27T09:19:49.344Z,12.86
2019-02-27T09:20:53.079Z,12.45
2019-02-27T09:21:49.698Z,12.62
2019-02-27T09:22:49.887Z,13.15
2019-02-27T09:23:50.048Z,13.01
2019-02-27T09:24:50.226Z,13.50
2019-02-27T09:25:57.043Z,13.87
2019-02-27T09:26:50.584Z,13.87
2019-02-27T09:27:50.767Z,14.03
2019-02-27T09:28:50.950Z,14.29
2019-02-27T09:29:52.305Z,13.85
2019-02-27T09:31:51.485Z,13.56
2019-02-27T09:32:51.660Z,13.50
2019-02-27T09:33:53.439Z,14.15
2019-02-27T09:34:52.009Z,14.05
2019-02-27T09:35:52.194Z,14.63
2019-02-27T09:36:52.400Z,14.22
2019-02-27T09:37:52.581Z,14.15
2019-02-27T09:38:57.358Z,14.88
2019-02-27T09:39:52.941Z,14.82
2019-02-27T09:40:53.118Z,14.48
2019-02-27T09:41:53.305Z,14.28
2019-02-27T09:42:53.930Z,14.11
2019-02-27T09:43:53.663Z,14.72
2019-02-27T09:44:53.856Z,15.19
2019-02-27T09:45:54.026Z,15.61
2019-02-27T09:46:54.205Z,15.59
2019-02-27T09:47:54.397Z,15.73
2019-02-27T09:48:55.857Z,16.00
2019-02-27T09:49:54.762Z,16.46
2019-02-27T09:50:56.920Z,16.53
2019-02-27T09:51:56.290Z,16.84
2019-02-27T09:52:55.310Z,16.47
2019-02-27T09:53:55.504Z,16.69
2019-02-27T09:54:55.664Z,17.11
2019-02-27T09:55:55.846Z,17.15
2019-02-27T09:56:56.029Z,17.51
2019-02-27T09:57:56.207Z,16.78
2019-02-27T09:58:56.393Z,17.11
2019-02-27T09:59:56.574Z,16.97
2019-02-27T10:00:59.179Z,17.63
2019-02-27T10:01:57.330Z,18.03
2019-02-27T10:02:58.237Z,18.01
2019-02-27T10:03:57.321Z,18.13
2019-02-27T10:05:01.434Z,18.22
2019-02-27T10:05:57.689Z,18.62
2019-02-27T10:06:57.860Z,18.71
2019-02-27T10:07:58.056Z,18.93
2019-02-27T10:08:59.073Z,18.60
2019-02-27T10:09:58.426Z,18.20
2019-02-27T10:10:58.607Z,18.55
2019-02-27T10:11:58.794Z,18.35
2019-02-27T10:12:59.895Z,18.56
2019-02-27T10:13:59.180Z,18.95
2019-02-27T10:14:59.355Z,19.40
2019-02-27T10:16:01.362Z,19.73
2019-02-27T10:16:59.726Z,19.70
2019-02-27T10:17:59.912Z,19.44
2019-02-27T10:19:00.099Z,19.27
2019-02-27T10:20:02.439Z,19.44
2019-02-27T10:21:00.473Z,19.18
2019-02-27T10:22:00.669Z,18.96
2019-02-27T10:23:00.860Z,19.37
2019-02-27T10:24:04.441Z,19.69
2019-02-27T10:25:01.222Z,19.77
2019-02-27T10:26:01.402Z,19.77
2019-02-27T10:27:01.593Z,19.85
2019-02-27T10:28:04.300Z,20.07
2019-02-27T10:29:01.962Z,20.00
2019-02-27T10:30:11.102Z,20.07
2019-02-27T10:31:02.326Z,20.06
2019-02-27T10:32:02.523Z,19.99
2019-02-27T10:33:03.500Z,19.59
2019-02-27T10:34:02.874Z,19.62
2019-02-27T10:35:03.043Z,18.95
2019-02-27T10:36:04.286Z,18.53
2019-02-27T10:37:03.489Z,18.62
2019-02-27T10:38:09.008Z,18.93
2019-02-27T10:39:05.082Z,18.59
2019-02-27T10:40:05.090Z,18.56
2019-02-27T10:41:08.065Z,19.08
2019-02-27T10:42:07.848Z,19.07
2019-02-27T10:43:04.935Z,19.34
2019-02-27T10:44:10.559Z,19.70
2019-02-27T10:46:05.684Z,19.29
2019-02-27T10:47:06.239Z,19.84
2019-02-27T10:49:09.926Z,19.63
2019-02-27T10:50:07.805Z,19.52
2019-02-27T10:52:08.070Z,19.44
2019-02-27T10:58:39.490Z,20.82
2019-02-27T10:59:40.131Z,21.12
2019-02-27T11:00:42.376Z,20.63
2019-02-27T11:02:47.444Z,20.93
2019-02-27T11:03:47.880Z,21.05
2019-02-27T11:04:44.570Z,21.27
2019-02-27T11:05:41.103Z,21.20
2019-02-27T11:06:41.007Z,21.20
2019-02-27T11:07:41.489Z,21.29
2019-02-27T11:08:41.520Z,21.52
2019-02-27T11:09:42.501Z,21.55
2019-02-27T11:10:44.065Z,21.52
2019-02-27T11:11:44.024Z,21.36
2019-02-27T11:12:42.947Z,21.55
2019-02-27T11:13:42.144Z,21.95
2019-02-27T11:14:41.934Z,21.70
2019-02-27T11:15:44.552Z,21.80
2019-02-27T11:16:42.162Z,21.83
2019-02-27T11:17:43.307Z,21.83
2019-02-27T11:18:42.907Z,21.50
2019-02-27T11:19:42.943Z,21.35
2019-02-27T11:20:43.292Z,21.75
2019-02-27T11:21:44.124Z,21.54
2019-02-27T11:22:45.102Z,21.98
2019-02-27T11:23:43.984Z,21.42
2019-02-27T11:24:49.126Z,21.80
2019-02-27T11:25:43.980Z,22.04
2019-02-27T11:26:44.265Z,22.53
2019-02-27T11:27:44.322Z,22.84
2019-02-27T11:28:47.543Z,22.83
2019-02-27T11:29:44.799Z,22.44
2019-02-27T11:30:44.940Z,22.70
2019-02-27T11:31:45.535Z,23.20
2019-02-27T11:32:45.638Z,22.83
2019-02-27T11:33:45.831Z,22.96
2019-02-27T11:34:48.435Z,23.48
2019-02-27T11:35:46.004Z,23.65
2019-02-27T11:36:46.225Z,23.83
2019-02-27T11:37:47.524Z,24.03
2019-02-27T11:38:46.600Z,23.78
2019-02-27T11:39:46.907Z,22.35
2019-02-27T11:40:46.941Z,23.02
2019-02-27T11:41:48.462Z,23.48
2019-02-27T11:42:47.573Z,23.58
2019-02-27T11:43:47.543Z,22.65
2019-02-27T11:44:49.744Z,23.23
2019-02-27T11:45:47.964Z,23.44
2019-02-27T11:46:58.417Z,23.69
2019-02-27T11:47:48.587Z,23.93
2019-02-27T11:48:48.584Z,24.17
2019-02-27T11:49:48.788Z,23.92
2019-02-27T11:50:48.979Z,24.45
2019-02-27T11:51:50.624Z,23.66
2019-02-27T11:52:49.378Z,23.86
2019-02-27T11:53:49.474Z,23.81
2019-02-27T11:54:49.676Z,24.51
2019-02-27T11:55:49.869Z,24.21
2019-02-27T11:56:51.499Z,24.76
2019-02-27T11:57:50.350Z,25.33
2019-02-27T11:58:50.604Z,25.22
2019-02-27T11:59:50.671Z,25.17
2019-02-27T12:00:50.890Z,25.17
2019-02-27T12:01:55.365Z,25.40
2019-02-27T12:02:51.235Z,25.26
2019-02-27T12:03:51.539Z,25.43
2019-02-27T12:04:55.387Z,25.11
2019-02-27T12:05:51.864Z,24.86
2019-02-27T12:06:51.989Z,24.69
2019-02-27T12:07:52.206Z,23.98
2019-02-27T12:08:52.351Z,24.57
2019-02-27T12:09:52.578Z,24.77
2019-02-27T12:10:52.846Z,24.17
2019-02-27T12:11:53.005Z,23.74
2019-02-27T12:12:53.120Z,23.65
2019-02-27T12:13:54.810Z,22.99
2019-02-27T12:14:53.503Z,22.99
2019-02-27T12:15:53.703Z,22.72
2019-02-27T12:16:53.836Z,21.70
2019-02-27T12:17:54.023Z,21.14
2019-02-27T12:18:54.185Z,21.17
2019-02-27T12:19:54.467Z,21.35
2019-02-27T12:20:54.627Z,21.22
2019-02-27T12:21:59.482Z,20.97
2019-02-27T12:22:54.981Z,20.96
2019-02-27T12:23:55.169Z,20.78
2019-02-27T12:24:55.366Z,20.55
2019-02-27T12:25:55.557Z,20.60
2019-02-27T12:26:55.751Z,20.75
2019-02-27T12:27:55.924Z,20.78
2019-02-27T12:28:56.100Z,20.81
2019-02-27T12:29:56.278Z,20.88
2019-02-27T12:30:56.571Z,20.77
2019-02-27T12:31:56.623Z,20.00
2019-02-27T12:32:57.193Z,20.11
2019-02-27T12:33:57.001Z,19.96
2019-02-27T12:34:57.180Z,19.99
2019-02-27T12:35:57.368Z,19.95
2019-02-27T12:36:57.545Z,20.02
2019-02-27T12:37:57.732Z,20.07
2019-02-27T12:38:57.907Z,19.82
2019-02-27T12:39:58.092Z,19.88
2019-02-27T12:40:59.036Z,19.67
2019-02-27T12:41:58.457Z,19.39
2019-02-27T12:42:58.658Z,19.63
2019-02-27T12:44:59.005Z,19.89
2019-02-27T12:46:00.887Z,19.99
2019-02-27T12:46:59.384Z,20.06
2019-02-27T12:47:59.567Z,20.04
2019-02-27T12:48:59.745Z,20.22
2019-02-27T12:49:59.940Z,20.36
2019-02-27T12:51:03.427Z,20.34
2019-02-27T12:52:00.290Z,20.37
2019-02-27T12:53:00.485Z,20.11
2019-02-27T12:54:00.660Z,20.21
2019-02-27T12:55:01.785Z,20.47
2019-02-27T12:56:01.024Z,20.60
2019-02-27T12:57:01.208Z,20.47
2019-02-27T12:58:01.380Z,20.44
2019-02-27T12:59:01.576Z,20.50
2019-02-27T13:00:01.766Z,20.56
2019-02-27T13:01:01.933Z,20.52
2019-02-27T13:02:08.271Z,20.36
2019-02-27T13:03:02.298Z,20.22
2019-02-27T13:04:02.481Z,20.02
2019-02-27T13:05:02.662Z,19.77
2019-02-27T13:06:02.850Z,19.81
2019-02-27T13:07:03.029Z,19.99
2019-02-27T13:08:03.209Z,20.09
2019-02-27T13:09:03.405Z,20.36
2019-02-27T13:10:03.591Z,20.29
2019-02-27T13:11:05.294Z,20.39
2019-02-27T13:13:04.118Z,20.50
2019-02-27T13:14:04.295Z,20.26
2019-02-27T13:15:07.390Z,20.11
2019-02-27T13:16:04.660Z,20.19
2019-02-27T13:17:04.843Z,20.37
2019-02-27T13:18:05.027Z,20.32
2019-02-27T13:19:07.039Z,20.44
2019-02-27T13:20:05.384Z,20.60
2019-02-27T13:21:05.561Z,20.56
2019-02-27T13:22:05.747Z,20.56
2019-02-27T13:23:05.925Z,20.58
2019-02-27T13:24:06.107Z,20.59
2019-02-27T13:25:06.288Z,20.26
2019-02-27T13:26:06.473Z,20.26
2019-02-27T13:27:09.284Z,20.25